createdAt,value
2023-01-24T00:00:21.043Z,82.17
2023-01-24T00:00:54.131Z,82.16
2023-01-24T00:01:26.363Z,82.12
2023-01-24T00:01:58.214Z,82.58
2023-01-24T00:02:30.222Z,83.02
2023-01-24T00:03:02.488Z,83.79
2023-01-24T00:03:34.396Z,83.65
2023-01-24T00:04:06.811Z,83.83
2023-01-24T00:04:38.767Z,83.82
2023-01-24T00:05:11.027Z,83.86
2023-01-24T00:05:45.097Z,83.92
2023-01-24T00:06:17.696Z,83.81
2023-01-24T00:06:49.582Z,83.45
2023-01-24T00:07:21.670Z,83.61
2023-01-24T00:07:54.288Z,83.05
2023-01-24T00:08:26.279Z,82.93
2023-01-24T00:08:58.402Z,82.83
2023-01-24T00:09:30.284Z,82.71
2023-01-24T00:10:02.187Z,82.70
2023-01-24T00:10:34.070Z,83.07
2023-01-24T00:11:09.684Z,83.48
2023-01-24T00:11:41.839Z,83.41
2023-01-24T00:12:13.767Z,83.33
2023-01-24T00:12:45.604Z,84.01
2023-01-24T00:13:17.884Z,84.12
2023-01-24T00:13:49.793Z,83.70
2023-01-24T00:14:21.703Z,83.32
2023-01-24T00:14:54.634Z,83.27
2023-01-24T00:15:26.828Z,83.22
2023-01-24T00:16:07.314Z,83.12
2023-01-24T00:16:39.281Z,83.35
2023-01-24T00:17:11.410Z,83.87
2023-01-24T00:17:43.421Z,83.83
2023-01-24T00:18:15.306Z,83.36
2023-01-24T00:18:48.442Z,83.45
2023-01-24T00:19:20.359Z,83.30
2023-01-24T00:19:52.241Z,83.17
2023-01-24T00:20:25.565Z,83.40
2023-01-24T00:21:10.321Z,83.35
2023-01-24T00:21:42.248Z,83.25
2023-01-24T00:22:14.435Z,83.19
2023-01-24T00:22:46.257Z,83.05
2023-01-24T00:23:18.138Z,82.85
2023-01-24T00:23:53.200Z,82.64
2023-01-24T00:24:27.464Z,82.62
2023-01-24T00:25:02.409Z,83.26
2023-01-24T00:25:34.302Z,83.95
2023-01-24T00:26:06.244Z,84.56
2023-01-24T00:26:38.199Z,84.76
2023-01-24T00:27:10.085Z,84.54
2023-01-24T00:27:42.380Z,84.01
2023-01-24T00:28:14.213Z,83.62
2023-01-24T00:28:47.451Z,83.22
2023-01-24T00:29:19.371Z,82.99
2023-01-24T00:29:51.281Z,83.68
2023-01-24T00:30:23.274Z,83.55
2023-01-24T00:30:55.247Z,83.31
2023-01-24T00:31:27.397Z,83.60
2023-01-24T00:31:59.917Z,83.63
2023-01-24T00:32:32.399Z,83.25
2023-01-24T00:33:04.633Z,82.83
2023-01-24T00:33:36.544Z,82.63
2023-01-24T00:34:08.470Z,82.67
2023-01-24T00:34:42.247Z,82.48
2023-01-24T00:35:14.165Z,82.15
2023-01-24T00:35:46.086Z,81.91
2023-01-24T00:36:18.003Z,81.63
2023-01-24T00:36:49.924Z,81.49
2023-01-24T00:37:21.839Z,81.24
2023-01-24T00:37:53.779Z,82.09
2023-01-24T00:38:26.252Z,82.54
2023-01-24T00:38:58.225Z,82.93
2023-01-24T00:39:31.189Z,82.87
2023-01-24T00:40:03.149Z,82.84
2023-01-24T00:40:35.051Z,82.95
2023-01-24T00:41:07.013Z,82.93
2023-01-24T00:41:38.978Z,82.77
2023-01-24T00:42:10.960Z,82.61
2023-01-24T00:42:42.844Z,82.42
2023-01-24T00:43:14.796Z,82.11
2023-01-24T00:43:46.989Z,81.97
2023-01-24T00:44:18.863Z,82.00
2023-01-24T00:44:51.392Z,82.21
2023-01-24T00:45:23.729Z,82.64
2023-01-24T00:45:56.289Z,82.92
2023-01-24T00:46:28.307Z,82.70
2023-01-24T00:47:00.242Z,82.45
2023-01-24T00:47:33.867Z,82.18
2023-01-24T00:48:07.305Z,82.04
2023-01-24T00:48:39.221Z,81.55
2023-01-24T00:49:11.569Z,81.49
2023-01-24T00:49:43.656Z,81.87
2023-01-24T00:50:15.648Z,82.10
2023-01-24T00:50:47.644Z,82.29
2023-01-24T00:51:19.555Z,82.47
2023-01-24T00:51:51.504Z,82.48
2023-01-24T00:52:23.473Z,82.54
2023-01-24T00:52:55.435Z,82.34
2023-01-24T00:53:27.411Z,81.89
2023-01-24T00:53:59.380Z,81.87
2023-01-24T00:54:31.649Z,82.48
2023-01-24T00:55:03.894Z,82.62
2023-01-24T00:55:40.949Z,82.61
2023-01-24T00:56:12.905Z,82.50
2023-01-24T00:56:45.282Z,82.05
2023-01-24T00:57:17.130Z,81.81
2023-01-24T00:57:49.225Z,81.58
2023-01-24T00:58:21.282Z,81.50
2023-01-24T00:58:53.225Z,81.58
2023-01-24T00:59:25.410Z,81.43
2023-01-24T00:59:57.573Z,81.43
2023-01-24T01:00:29.708Z,81.46
2023-01-24T01:01:04.914Z,81.79
2023-01-24T01:01:37.251Z,82.14
2023-01-24T01:02:09.293Z,82.51
2023-01-24T01:02:41.209Z,82.71
2023-01-24T01:03:19.314Z,83.03
2023-01-24T01:03:56.944Z,83.32
2023-01-24T01:04:28.839Z,83.38
2023-01-24T01:05:01.129Z,83.67
2023-01-24T01:05:33.402Z,84.21
2023-01-24T01:06:10.323Z,84.11
2023-01-24T01:06:42.347Z,83.87
2023-01-24T01:07:14.465Z,83.75
2023-01-24T01:07:46.397Z,83.29
2023-01-24T01:08:18.316Z,82.88
2023-01-24T01:08:50.211Z,82.64
2023-01-24T01:09:22.206Z,82.63
2023-01-24T01:09:54.171Z,82.46
2023-01-24T01:10:26.353Z,82.33
2023-01-24T01:10:58.408Z,82.16
2023-01-24T01:11:30.394Z,81.79
2023-01-24T01:12:04.202Z,82.04
2023-01-24T01:12:36.070Z,82.07
2023-01-24T01:13:12.528Z,82.33
2023-01-24T01:13:45.934Z,83.36
2023-01-24T01:14:18.463Z,83.75
2023-01-24T01:14:50.573Z,83.41
2023-01-24T01:15:22.836Z,83.33
2023-01-24T01:16:05.843Z,82.94
2023-01-24T01:16:40.826Z,82.75
2023-01-24T01:17:12.756Z,82.88
2023-01-24T01:17:44.671Z,82.61
2023-01-24T01:18:16.578Z,82.19
2023-01-24T01:18:50.523Z,82.33
2023-01-24T01:19:22.490Z,82.42
2023-01-24T01:19:54.918Z,82.89
2023-01-24T01:20:27.967Z,83.30
2023-01-24T01:21:00.164Z,83.15
2023-01-24T01:21:33.325Z,82.77
2023-01-24T01:22:05.276Z,82.33
2023-01-24T01:22:37.144Z,82.31
2023-01-24T01:23:09.080Z,82.35
2023-01-24T01:23:41.076Z,81.98
2023-01-24T01:24:12.980Z,81.77
2023-01-24T01:24:44.932Z,81.97
2023-01-24T01:25:16.923Z,82.69
2023-01-24T01:25:48.803Z,83.32
2023-01-24T01:26:22.841Z,83.51
2023-01-24T01:26:54.748Z,83.33
2023-01-24T01:27:26.607Z,83.37
2023-01-24T01:27:58.764Z,83.59
2023-01-24T01:28:30.877Z,83.57
2023-01-24T01:29:02.811Z,83.33
2023-01-24T01:29:35.273Z,83.85
2023-01-24T01:30:07.822Z,83.90
2023-01-24T01:30:39.841Z,83.64
2023-01-24T01:31:11.811Z,83.19
2023-01-24T01:31:44.101Z,82.94
2023-01-24T01:32:15.999Z,82.68
2023-01-24T01:32:48.181Z,83.15
2023-01-24T01:33:20.130Z,83.37
2023-01-24T01:33:52.036Z,82.77
2023-01-24T01:34:25.447Z,82.42
2023-01-24T01:34:57.341Z,82.32
2023-01-24T01:35:30.101Z,82.78
2023-01-24T01:36:02.268Z,82.97
2023-01-24T01:36:34.147Z,83.05
2023-01-24T01:37:06.350Z,82.90
2023-01-24T01:37:38.195Z,82.51
2023-01-24T01:38:10.061Z,82.90
2023-01-24T01:38:42.023Z,83.49
2023-01-24T01:39:14.012Z,83.71
2023-01-24T01:39:45.916Z,83.57
2023-01-24T01:40:19.203Z,83.41
2023-01-24T01:40:52.656Z,83.45
2023-01-24T01:41:24.827Z,83.62
2023-01-24T01:41:56.723Z,84.01
2023-01-24T01:42:41.998Z,83.71
2023-01-24T01:43:19.479Z,83.29
2023-01-24T01:44:10.006Z,83.54
2023-01-24T01:44:44.298Z,83.93
2023-01-24T01:45:40.065Z,83.87
2023-01-24T01:46:22.151Z,83.53
2023-01-24T01:46:55.015Z,83.11
2023-01-24T01:47:36.784Z,83.12
2023-01-24T01:48:15.053Z,82.76
2023-01-24T01:48:51.963Z,82.36
2023-01-24T01:49:27.678Z,82.10
2023-01-24T01:50:26.905Z,81.89
2023-01-24T01:51:14.956Z,82.18
2023-01-24T01:51:50.595Z,82.60
2023-01-24T01:52:25.885Z,82.82
2023-01-24T01:52:58.466Z,82.74
2023-01-24T01:53:38.243Z,82.56
2023-01-24T01:54:21.894Z,82.71
2023-01-24T01:55:00.375Z,83.22
2023-01-24T01:55:37.134Z,83.19
2023-01-24T01:56:17.969Z,83.29
2023-01-24T01:57:04.232Z,83.48
2023-01-24T01:57:37.407Z,83.31
2023-01-24T01:58:09.515Z,84.29
2023-01-24T01:58:42.525Z,84.55
2023-01-24T01:59:26.311Z,84.30
2023-01-24T02:00:20.680Z,84.17
2023-01-24T02:00:53.403Z,84.31
2023-01-24T02:01:25.708Z,84.06
2023-01-24T02:01:58.927Z,83.96
2023-01-24T02:02:32.554Z,83.81
2023-01-24T02:03:33.743Z,83.68
2023-01-24T02:04:09.687Z,83.93
2023-01-24T02:04:47.897Z,83.93
2023-01-24T02:05:25.046Z,83.82
2023-01-24T02:05:59.081Z,83.97
2023-01-24T02:06:46.551Z,83.84
2023-01-24T02:07:25.343Z,83.71
2023-01-24T02:08:02.650Z,84.13
2023-01-24T02:08:35.131Z,84.43
2023-01-24T02:09:09.789Z,84.64
2023-01-24T02:09:44.959Z,84.70
2023-01-24T02:10:20.407Z,84.92
2023-01-24T02:11:12.404Z,85.10
2023-01-24T02:11:45.855Z,84.95
2023-01-24T02:12:24.913Z,85.04
2023-01-24T02:12:56.798Z,84.45
2023-01-24T02:13:28.792Z,84.13
2023-01-24T02:14:21.350Z,83.71
2023-01-24T02:15:16.412Z,83.98
2023-01-24T02:16:04.727Z,84.40
2023-01-24T02:16:36.698Z,84.41
2023-01-24T02:17:09.231Z,84.69
2023-01-24T02:17:41.835Z,84.96
2023-01-24T02:18:13.718Z,85.21
2023-01-24T02:18:45.668Z,85.08
2023-01-24T02:20:19.067Z,84.28
2023-01-24T02:20:51.023Z,84.44
2023-01-24T02:21:22.955Z,84.48
2023-01-24T02:22:02.172Z,83.75
2023-01-24T02:22:58.740Z,83.26
2023-01-24T02:23:48.984Z,83.16
2023-01-24T02:24:40.320Z,83.15
2023-01-24T02:25:41.432Z,82.98
2023-01-24T02:26:24.899Z,83.08
2023-01-24T02:26:56.841Z,82.78
2023-01-24T02:27:29.118Z,82.57
2023-01-24T02:28:03.536Z,82.33
2023-01-24T02:28:36.464Z,82.25
2023-01-24T02:29:12.638Z,82.20
2023-01-24T02:29:44.553Z,81.76
2023-01-24T02:30:16.830Z,82.22
2023-01-24T02:30:48.776Z,82.11
2023-01-24T02:31:21.246Z,82.07
2023-01-24T02:32:02.069Z,82.41
2023-01-24T02:32:33.852Z,82.84
2023-01-24T02:33:18.568Z,83.07
2023-01-24T02:33:50.454Z,82.84
2023-01-24T02:34:22.537Z,82.82
2023-01-24T02:34:54.614Z,83.08
2023-01-24T02:35:32.829Z,83.08
2023-01-24T02:36:24.780Z,83.06
2023-01-24T02:36:59.999Z,82.64
2023-01-24T02:37:34.313Z,82.88
2023-01-24T02:38:13.632Z,82.60
2023-01-24T02:38:51.189Z,82.70
2023-01-24T02:39:29.193Z,83.31
2023-01-24T02:40:08.277Z,83.43
2023-01-24T02:40:42.698Z,83.10
2023-01-24T02:41:18.294Z,82.88
2023-01-24T02:41:54.063Z,83.18
2023-01-24T02:42:33.634Z,83.21
2023-01-24T02:43:08.359Z,83.47
2023-01-24T02:43:46.977Z,83.76
2023-01-24T02:44:28.120Z,84.08
2023-01-24T02:45:18.385Z,84.52
2023-01-24T02:45:50.598Z,84.40
2023-01-24T02:46:22.537Z,83.89
2023-01-24T02:46:54.482Z,83.67
2023-01-24T02:47:33.396Z,83.93
2023-01-24T02:48:05.515Z,84.16
2023-01-24T02:48:37.453Z,83.75
2023-01-24T02:49:10.192Z,83.57
2023-01-24T02:49:42.476Z,83.96
2023-01-24T02:50:15.170Z,83.54
2023-01-24T02:51:05.522Z,82.83
2023-01-24T02:51:56.970Z,82.51
2023-01-24T02:52:48.435Z,82.62
2023-01-24T02:53:30.583Z,82.53
2023-01-24T02:54:02.571Z,82.97
2023-01-24T02:54:36.289Z,83.42
2023-01-24T02:55:08.488Z,83.58
2023-01-24T02:56:00.342Z,83.52
2023-01-24T02:56:51.284Z,83.24
2023-01-24T02:57:42.216Z,83.09
2023-01-24T02:58:14.096Z,83.17
2023-01-24T02:58:46.707Z,83.18
2023-01-24T02:59:18.683Z,83.50
2023-01-24T02:59:52.301Z,83.35
2023-01-24T03:00:24.407Z,82.98
2023-01-24T03:00:56.607Z,83.13
2023-01-24T03:01:29.002Z,83.06
2023-01-24T03:02:00.963Z,82.90
2023-01-24T03:02:33.565Z,83.27
2023-01-24T03:03:07.006Z,83.46
2023-01-24T03:03:39.245Z,83.22
2023-01-24T03:04:12.841Z,82.69
2023-01-24T03:04:44.924Z,82.46
2023-01-24T03:05:17.121Z,82.45
2023-01-24T03:05:58.238Z,82.73
2023-01-24T03:06:30.655Z,82.93
2023-01-24T03:07:02.972Z,82.86
2023-01-24T03:07:44.567Z,82.96
2023-01-24T03:08:16.725Z,83.14
2023-01-24T03:08:48.834Z,83.31
2023-01-24T03:09:34.428Z,83.13
2023-01-24T03:10:13.938Z,82.94
2023-01-24T03:10:47.774Z,82.73
2023-01-24T03:11:20.808Z,82.34
2023-01-24T03:11:52.956Z,82.02
2023-01-24T03:12:43.719Z,82.24
2023-01-24T03:13:34.454Z,82.32
2023-01-24T03:14:24.987Z,82.25
2023-01-24T03:15:15.851Z,82.63
2023-01-24T03:16:06.655Z,82.69
2023-01-24T03:16:57.156Z,82.45
2023-01-24T03:17:47.739Z,82.45
2023-01-24T03:18:38.147Z,82.87
2023-01-24T03:19:28.661Z,82.65
2023-01-24T03:20:19.879Z,82.54
2023-01-24T03:21:11.008Z,83.12
2023-01-24T03:22:01.832Z,83.09
2023-01-24T03:22:52.088Z,83.18
2023-01-24T03:23:42.533Z,83.50
2023-01-24T03:24:33.469Z,83.27
2023-01-24T03:25:24.645Z,82.76
2023-01-24T03:26:17.162Z,82.47
2023-01-24T03:27:07.917Z,82.66
2023-01-24T03:27:58.957Z,82.76
2023-01-24T03:28:49.713Z,82.74
2023-01-24T03:29:40.665Z,82.71
2023-01-24T03:30:31.544Z,83.44
2023-01-24T03:31:26.169Z,82.94
2023-01-24T03:32:17.912Z,83.66
2023-01-24T03:33:09.321Z,84.29
2023-01-24T03:34:00.303Z,83.93
2023-01-24T03:34:46.412Z,83.65
2023-01-24T03:35:18.451Z,83.49
2023-01-24T03:35:59.229Z,83.69
2023-01-24T03:36:32.987Z,83.69
2023-01-24T03:37:05.381Z,83.78
2023-01-24T03:37:56.125Z,83.56
2023-01-24T03:38:46.886Z,83.66
2023-01-24T03:39:37.647Z,83.60
2023-01-24T03:40:14.076Z,83.92
2023-01-24T03:40:47.450Z,84.33
2023-01-24T03:41:19.442Z,83.91
2023-01-24T03:41:53.314Z,83.79
2023-01-24T03:42:27.552Z,83.34
2023-01-24T03:43:01.092Z,83.52
2023-01-24T03:43:33.671Z,83.61
2023-01-24T03:44:05.677Z,83.42
2023-01-24T03:44:37.582Z,82.89
2023-01-24T03:45:17.328Z,82.50
2023-01-24T03:45:54.697Z,82.45
2023-01-24T03:46:28.106Z,82.53
2023-01-24T03:47:00.793Z,82.32
2023-01-24T03:47:32.900Z,82.60
2023-01-24T03:48:13.903Z,82.59
2023-01-24T03:48:45.928Z,82.41
2023-01-24T03:49:18.024Z,82.30
2023-01-24T03:50:08.883Z,81.77
2023-01-24T03:51:02.344Z,81.68
2023-01-24T03:51:53.117Z,82.99
2023-01-24T03:52:31.422Z,83.27
2023-01-24T03:53:06.789Z,83.14
2023-01-24T03:53:39.035Z,83.05
2023-01-24T03:54:11.588Z,83.21
2023-01-24T03:54:43.995Z,83.26
2023-01-24T03:55:16.155Z,83.34
2023-01-24T03:55:52.094Z,83.33
2023-01-24T03:56:24.267Z,83.22
2023-01-24T03:56:58.280Z,83.10
2023-01-24T03:57:30.652Z,82.71
2023-01-24T03:58:03.738Z,82.69
2023-01-24T03:58:35.910Z,82.54
2023-01-24T03:59:08.555Z,83.07
2023-01-24T03:59:41.174Z,83.49
2023-01-24T04:00:13.896Z,83.51
2023-01-24T04:00:48.979Z,83.72
2023-01-24T04:01:23.362Z,83.88
2023-01-24T04:01:56.578Z,83.44
2023-01-24T04:02:29.273Z,83.53
2023-01-24T04:03:01.896Z,83.67
2023-01-24T04:03:34.773Z,83.30
2023-01-24T04:04:06.999Z,83.22
2023-01-24T04:04:59.865Z,82.64
2023-01-24T04:05:34.195Z,82.35
2023-01-24T04:06:06.483Z,82.38
2023-01-24T04:06:38.872Z,82.71
2023-01-24T04:07:25.297Z,83.25
2023-01-24T04:07:58.862Z,83.11
2023-01-24T04:08:31.140Z,83.12
2023-01-24T04:09:03.177Z,83.13
2023-01-24T04:09:35.141Z,83.51
2023-01-24T04:10:07.897Z,83.89
2023-01-24T04:10:40.535Z,84.11
2023-01-24T04:11:12.756Z,83.97
2023-01-24T04:11:45.056Z,83.46
2023-01-24T04:12:18.260Z,82.86
2023-01-24T04:12:50.283Z,82.66
2023-01-24T04:13:22.142Z,82.23
2023-01-24T04:13:54.344Z,82.12
2023-01-24T04:14:26.219Z,82.38
2023-01-24T04:14:58.938Z,82.35
2023-01-24T04:15:33.554Z,82.41
2023-01-24T04:16:09.026Z,82.20
2023-01-24T04:16:44.095Z,81.97
2023-01-24T04:17:16.876Z,81.63
2023-01-24T04:17:48.922Z,81.41
2023-01-24T04:18:21.681Z,81.30
2023-01-24T04:18:53.682Z,81.72
2023-01-24T04:19:26.268Z,81.86
2023-01-24T04:19:58.296Z,81.82
2023-01-24T04:20:32.652Z,82.13
2023-01-24T04:21:06.769Z,82.08
2023-01-24T04:21:38.843Z,82.14
2023-01-24T04:22:10.785Z,82.23
2023-01-24T04:22:43.836Z,82.51
2023-01-24T04:23:16.039Z,82.56
2023-01-24T04:23:48.163Z,82.47
2023-01-24T04:24:20.392Z,82.10
2023-01-24T04:24:52.558Z,82.37
2023-01-24T04:25:25.176Z,82.49
2023-01-24T04:25:59.468Z,82.81
2023-01-24T04:26:32.844Z,82.83
2023-01-24T04:27:05.516Z,82.76
2023-01-24T04:27:38.847Z,82.83
2023-01-24T04:28:11.232Z,83.03
2023-01-24T04:28:43.361Z,83.29
2023-01-24T04:29:15.617Z,83.95
2023-01-24T04:29:47.962Z,84.02
2023-01-24T04:30:20.559Z,83.84
2023-01-24T04:31:00.996Z,83.82
2023-01-24T04:31:35.130Z,83.83
2023-01-24T04:32:08.468Z,83.78
2023-01-24T04:32:40.891Z,83.92
2023-01-24T04:33:13.725Z,84.40
2023-01-24T04:33:46.595Z,84.61
2023-01-24T04:34:19.085Z,84.76
2023-01-24T04:34:51.359Z,84.85
2023-01-24T04:35:28.532Z,85.24
2023-01-24T04:36:00.674Z,85.40
2023-01-24T04:36:33.658Z,85.33
2023-01-24T04:37:05.800Z,84.91
2023-01-24T04:37:38.609Z,84.60
2023-01-24T04:38:10.560Z,84.97
2023-01-24T04:38:43.024Z,85.14
2023-01-24T04:39:15.287Z,84.86
2023-01-24T04:39:48.210Z,84.52
2023-01-24T04:40:20.839Z,84.08
2023-01-24T04:41:02.579Z,83.77
2023-01-24T04:41:35.024Z,83.19
2023-01-24T04:42:07.278Z,82.80
2023-01-24T04:42:40.183Z,82.70
2023-01-24T04:43:12.805Z,82.59
2023-01-24T04:43:45.374Z,82.61
2023-01-24T04:44:17.457Z,83.45
2023-01-24T04:44:49.722Z,83.76
2023-01-24T04:45:22.104Z,83.53
2023-01-24T04:45:59.249Z,88.10
2023-01-24T04:46:32.189Z,89.44
2023-01-24T04:47:05.482Z,86.86
2023-01-24T04:47:37.581Z,86.37
2023-01-24T04:48:10.432Z,85.23
2023-01-24T04:48:44.028Z,84.01
2023-01-24T04:49:16.868Z,83.42
2023-01-24T04:49:48.948Z,84.15
2023-01-24T04:50:21.517Z,84.14
2023-01-24T04:50:58.144Z,83.44
2023-01-24T04:51:30.143Z,83.26
2023-01-24T04:52:02.833Z,82.79
2023-01-24T04:52:35.440Z,82.63
2023-01-24T04:53:07.776Z,82.61
2023-01-24T04:53:41.487Z,87.56
2023-01-24T04:54:15.679Z,87.73
2023-01-24T04:54:48.051Z,87.58
2023-01-24T04:55:21.017Z,86.01
2023-01-24T04:55:54.312Z,84.92
2023-01-24T04:56:26.917Z,84.06
2023-01-24T04:56:59.026Z,83.81
2023-01-24T04:57:31.166Z,83.89
2023-01-24T04:58:04.237Z,84.00
2023-01-24T04:58:36.225Z,83.49
2023-01-24T04:59:11.307Z,82.79
2023-01-24T04:59:45.632Z,82.67
2023-01-24T05:00:18.220Z,82.73
2023-01-24T05:00:51.256Z,82.90
2023-01-24T05:01:23.679Z,83.23
2023-01-24T05:01:56.303Z,83.17
2023-01-24T05:02:28.721Z,83.32
2023-01-24T05:03:00.951Z,83.41
2023-01-24T05:03:33.427Z,83.48
2023-01-24T05:04:05.858Z,83.93
2023-01-24T05:04:38.463Z,83.85
2023-01-24T05:05:11.538Z,83.92
2023-01-24T05:05:53.260Z,84.03
2023-01-24T05:06:31.119Z,84.08
2023-01-24T05:07:03.999Z,83.75
2023-01-24T05:07:36.407Z,83.49
2023-01-24T05:08:08.853Z,83.24
2023-01-24T05:08:42.455Z,83.14
2023-01-24T05:09:14.768Z,83.20
2023-01-24T05:09:49.956Z,83.64
2023-01-24T05:10:24.400Z,84.01
2023-01-24T05:11:02.467Z,84.17
2023-01-24T05:11:37.562Z,84.31
2023-01-24T05:12:09.953Z,84.57
2023-01-24T05:12:41.863Z,84.63
2023-01-24T05:13:14.401Z,84.61
2023-01-24T05:13:46.433Z,84.57
2023-01-24T05:14:18.373Z,84.64
2023-01-24T05:14:50.967Z,84.68
2023-01-24T05:15:24.416Z,84.81
2023-01-24T05:15:57.310Z,84.89
2023-01-24T05:16:29.269Z,84.54
2023-01-24T05:17:01.191Z,84.27
2023-01-24T05:17:33.338Z,84.27
2023-01-24T05:18:05.458Z,84.08
2023-01-24T05:18:37.436Z,83.74
2023-01-24T05:19:09.432Z,84.11
2023-01-24T05:19:41.450Z,84.50
2023-01-24T05:20:14.069Z,84.60
2023-01-24T05:20:46.409Z,84.58
2023-01-24T05:21:19.848Z,84.15
2023-01-24T05:21:51.750Z,83.84
2023-01-24T05:22:23.628Z,83.49
2023-01-24T05:22:57.855Z,83.32
2023-01-24T05:23:30.121Z,83.45
2023-01-24T05:24:02.082Z,83.88
2023-01-24T05:24:34.021Z,84.72
2023-01-24T05:25:06.582Z,85.20
2023-01-24T05:25:38.642Z,85.22
2023-01-24T05:26:10.717Z,85.00
2023-01-24T05:26:42.988Z,84.65
2023-01-24T05:27:15.375Z,84.83
2023-01-24T05:27:48.072Z,84.88
2023-01-24T05:28:20.164Z,84.68
2023-01-24T05:28:53.526Z,84.51
2023-01-24T05:29:25.519Z,87.11
2023-01-24T05:29:58.879Z,86.83
2023-01-24T05:30:30.761Z,86.64
2023-01-24T05:31:08.403Z,85.69
2023-01-24T05:31:40.346Z,84.89
2023-01-24T05:32:13.122Z,84.28
2023-01-24T05:32:46.455Z,84.00
2023-01-24T05:33:19.889Z,83.31
2023-01-24T05:33:51.869Z,83.03
2023-01-24T05:34:24.494Z,82.73
2023-01-24T05:34:56.415Z,82.31
2023-01-24T05:35:28.375Z,82.28
2023-01-24T05:36:07.906Z,82.71
2023-01-24T05:36:40.523Z,83.21
2023-01-24T05:37:12.769Z,83.81
2023-01-24T05:37:44.939Z,84.17
2023-01-24T05:38:18.119Z,84.21
2023-01-24T05:38:54.030Z,84.46
2023-01-24T05:39:26.031Z,84.57
2023-01-24T05:39:58.424Z,84.29
2023-01-24T05:40:30.353Z,83.85
2023-01-24T05:41:08.213Z,83.71
2023-01-24T05:41:40.273Z,83.78
2023-01-24T05:42:13.178Z,84.31
2023-01-24T05:42:45.610Z,84.61
2023-01-24T05:43:17.684Z,84.68
2023-01-24T05:43:50.466Z,84.89
2023-01-24T05:44:22.655Z,85.05
2023-01-24T05:44:54.743Z,85.25
2023-01-24T05:45:26.601Z,85.25
2023-01-24T05:46:08.363Z,85.43
2023-01-24T05:46:40.930Z,85.60
2023-01-24T05:47:13.880Z,85.88
2023-01-24T05:47:46.159Z,86.28
2023-01-24T05:48:18.931Z,85.96
2023-01-24T05:48:52.061Z,85.65
2023-01-24T05:49:24.131Z,85.43
2023-01-24T05:49:56.226Z,85.07
2023-01-24T05:50:28.168Z,84.74
2023-01-24T05:51:16.768Z,84.54
2023-01-24T05:51:49.448Z,84.33
2023-01-24T05:52:24.753Z,84.07
2023-01-24T05:52:56.694Z,83.94
2023-01-24T05:53:29.974Z,84.25
2023-01-24T05:54:03.215Z,84.35
2023-01-24T05:54:37.348Z,84.92
2023-01-24T05:55:09.611Z,84.97
2023-01-24T05:55:41.703Z,84.83
2023-01-24T05:56:16.618Z,84.55
2023-01-24T05:56:48.508Z,84.53
2023-01-24T05:57:21.644Z,84.61
2023-01-24T05:58:00.780Z,84.20
2023-01-24T05:58:37.972Z,83.71
2023-01-24T05:59:11.538Z,83.20
2023-01-24T05:59:44.495Z,83.09
2023-01-24T06:00:17.482Z,83.04
2023-01-24T06:00:50.529Z,82.98
2023-01-24T06:01:23.386Z,82.52
2023-01-24T06:01:55.797Z,83.39
2023-01-24T06:02:28.440Z,84.18
2023-01-24T06:03:04.552Z,84.44
2023-01-24T06:03:39.184Z,85.03
2023-01-24T06:04:11.345Z,84.98
2023-01-24T06:04:44.694Z,84.32
2023-01-24T06:05:16.655Z,83.84
2023-01-24T06:05:54.427Z,83.80
2023-01-24T06:06:28.293Z,83.47
2023-01-24T06:07:00.196Z,82.95
2023-01-24T06:07:32.166Z,82.71
2023-01-24T06:08:04.357Z,82.63
2023-01-24T06:08:36.880Z,82.48
2023-01-24T06:09:09.675Z,82.51
2023-01-24T06:09:41.614Z,82.35
2023-01-24T06:10:13.771Z,82.23
2023-01-24T06:10:47.563Z,82.50
2023-01-24T06:11:22.161Z,82.85
2023-01-24T06:11:54.714Z,83.21
2023-01-24T06:12:28.451Z,83.40
2023-01-24T06:13:01.292Z,83.57
2023-01-24T06:13:33.857Z,83.46
2023-01-24T06:14:05.887Z,83.57
2023-01-24T06:14:37.765Z,83.42
2023-01-24T06:15:11.142Z,83.27
2023-01-24T06:15:43.076Z,83.79
2023-01-24T06:16:22.683Z,84.23
2023-01-24T06:16:54.995Z,84.08
2023-01-24T06:17:26.948Z,83.65
2023-01-24T06:17:58.888Z,83.41
2023-01-24T06:18:30.932Z,83.04
2023-01-24T06:19:03.244Z,82.50
2023-01-24T06:19:35.938Z,82.50
2023-01-24T06:20:11.593Z,82.67
2023-01-24T06:20:43.890Z,82.18
2023-01-24T06:21:40.535Z,82.06
2023-01-24T06:22:33.272Z,81.99
2023-01-24T06:23:08.300Z,82.76
2023-01-24T06:23:40.934Z,82.80
2023-01-24T06:24:23.367Z,82.37
2023-01-24T06:24:55.964Z,82.34
2023-01-24T06:25:28.998Z,82.36
2023-01-24T06:26:01.234Z,82.33
2023-01-24T06:26:33.700Z,82.17
2023-01-24T06:27:05.938Z,82.09
2023-01-24T06:27:38.284Z,82.51
2023-01-24T06:28:10.609Z,83.04
2023-01-24T06:28:42.716Z,83.09
2023-01-24T06:29:15.146Z,82.96
2023-01-24T06:29:47.346Z,83.10
2023-01-24T06:30:20.587Z,83.28
2023-01-24T06:31:05.972Z,83.42
2023-01-24T06:31:50.156Z,83.51
2023-01-24T06:33:03.781Z,84.40
2023-01-24T06:34:05.206Z,84.63
2023-01-24T06:35:01.948Z,84.31
2023-01-24T06:35:49.052Z,83.74
2023-01-24T06:36:58.968Z,83.12
2023-01-24T06:37:42.975Z,83.08
2023-01-24T06:38:24.101Z,84.08
2023-01-24T06:38:56.721Z,84.05
2023-01-24T06:39:28.863Z,83.99
2023-01-24T06:40:01.089Z,84.13
2023-01-24T06:40:33.057Z,84.14
2023-01-24T06:41:17.787Z,84.03
2023-01-24T06:41:50.002Z,84.45
2023-01-24T06:42:25.685Z,83.97
2023-01-24T06:42:58.624Z,83.97
2023-01-24T06:43:30.815Z,84.29
2023-01-24T06:44:03.334Z,84.27
2023-01-24T06:44:35.483Z,83.96
2023-01-24T06:45:08.595Z,84.10
2023-01-24T06:45:40.480Z,84.24
2023-01-24T06:46:13.980Z,84.33
2023-01-24T06:46:45.863Z,84.38
2023-01-24T06:47:17.911Z,84.64
2023-01-24T06:47:49.805Z,84.64
2023-01-24T06:48:22.302Z,84.58
2023-01-24T06:48:54.325Z,84.58
2023-01-24T06:49:26.496Z,84.24
2023-01-24T06:49:58.523Z,83.80
2023-01-24T06:50:32.436Z,83.49
2023-01-24T06:51:05.244Z,83.05
2023-01-24T06:51:37.196Z,82.83
2023-01-24T06:52:09.594Z,82.93
2023-01-24T06:52:41.542Z,83.01
2023-01-24T06:53:15.281Z,82.73
2023-01-24T06:53:47.193Z,82.72
2023-01-24T06:54:19.509Z,83.12
2023-01-24T06:54:51.751Z,83.46
2023-01-24T06:55:24.194Z,83.63
2023-01-24T06:55:56.224Z,83.52
2023-01-24T06:56:28.195Z,83.24
2023-01-24T06:57:00.060Z,83.09
2023-01-24T06:57:31.939Z,82.77
2023-01-24T06:58:04.808Z,83.04
2023-01-24T06:58:36.897Z,83.41
2023-01-24T06:59:08.760Z,83.71
2023-01-24T06:59:40.778Z,84.03
2023-01-24T07:00:13.548Z,83.92
2023-01-24T07:00:45.441Z,83.42
2023-01-24T07:01:17.432Z,83.33
2023-01-24T07:01:50.099Z,83.23
2023-01-24T07:02:21.987Z,83.25
2023-01-24T07:03:07.319Z,83.27
2023-01-24T07:03:39.301Z,83.28
2023-01-24T07:04:11.575Z,84.07
2023-01-24T07:04:43.559Z,84.17
2023-01-24T07:05:15.779Z,83.85
2023-01-24T07:05:48.694Z,83.35
2023-01-24T07:06:23.248Z,82.62
2023-01-24T07:06:55.148Z,83.08
2023-01-24T07:07:27.022Z,85.06
2023-01-24T07:07:58.974Z,84.18
2023-01-24T07:08:30.862Z,84.11
2023-01-24T07:09:03.104Z,83.93
2023-01-24T07:09:34.941Z,83.54
2023-01-24T07:10:07.200Z,82.77
2023-01-24T07:10:40.824Z,81.81
2023-01-24T07:11:12.728Z,81.57
2023-01-24T07:11:44.638Z,81.81
2023-01-24T07:12:16.594Z,81.22
2023-01-24T07:12:48.540Z,80.98
2023-01-24T07:13:20.600Z,80.42
2023-01-24T07:13:52.477Z,80.83
2023-01-24T07:14:24.385Z,80.88
2023-01-24T07:14:56.282Z,80.93
2023-01-24T07:15:28.704Z,81.23
2023-01-24T07:16:02.818Z,81.52
2023-01-24T07:16:35.350Z,81.45
2023-01-24T07:17:08.433Z,81.21
2023-01-24T07:17:40.847Z,80.58
2023-01-24T07:18:14.273Z,80.15
2023-01-24T07:18:46.419Z,79.99
2023-01-24T07:19:22.764Z,79.95
2023-01-24T07:19:55.035Z,79.80
2023-01-24T07:20:27.171Z,78.99
2023-01-24T07:20:59.424Z,78.40
2023-01-24T07:21:31.954Z,77.96
2023-01-24T07:22:04.157Z,77.99
2023-01-24T07:22:38.329Z,77.90
2023-01-24T07:23:25.758Z,77.70
2023-01-24T07:23:58.795Z,77.66
2023-01-24T07:24:31.312Z,77.75
2023-01-24T07:25:04.109Z,78.25
2023-01-24T07:25:38.172Z,78.76
2023-01-24T07:26:12.225Z,79.33
2023-01-24T07:26:44.821Z,79.04
2023-01-24T07:27:16.964Z,78.71
2023-01-24T07:27:49.068Z,78.30
2023-01-24T07:28:21.137Z,78.72
2023-01-24T07:28:52.994Z,78.65
2023-01-24T07:29:24.905Z,78.26
2023-01-24T07:29:56.789Z,77.84
2023-01-24T07:30:29.435Z,77.24
2023-01-24T07:31:01.400Z,77.13
2023-01-24T07:31:33.875Z,77.09
2023-01-24T07:32:06.298Z,77.34